Time;durP1;ratioP1;P1;durP2;ratioP2;P2;SDS_P1;SDS_P2;PMS_P1;PMS_P2;Temp;Humidity;BMP_temperature;BMP_pressure;BME280_temperature;BME280_humidity;BME280_pressure;Samples;Min_cycle;Max_cycle;Signal;HPM_P1;HPM_P2
2021/04/07 00:00:12;;;;;;;146.80;87.55;;;;;;;11.76;69.25;71878.66;5009869;28;20216;-84
2021/04/07 00:02:39;;;;;;;128.15;86.53;;;;;;;11.93;68.36;71897.16;4993870;28;20068;-84
2021/04/07 00:05:12;;;;;;;135.30;88.25;;;;;;;11.96;68.40;71897.97;5011197;28;20497;-85
2021/04/07 00:07:42;;;;;;;123.25;86.72;;;;;;;11.55;67.87;71854.22;4993029;28;20037;-85
2021/04/07 00:10:14;;;;;;;136.95;83.43;;;;;;;11.34;68.21;71827.63;4993714;28;20026;-84
2021/04/07 00:12:42;;;;;;;122.47;81.45;;;;;;;11.43;68.09;71837.16;4993322;28;20120;-83
2021/04/07 00:15:20;;;;;;;119.13;82.47;;;;;;;11.26;67.98;71820.84;5011501;28;20048;-85
2021/04/07 00:17:48;;;;;;;125.00;77.88;;;;;;;11.31;67.38;71824.06;5009944;28;20030;-84
2021/04/07 00:20:21;;;;;;;100.25;70.10;;;;;;;11.98;66.73;71900.34;5011155;28;20052;-83
2021/04/07 00:22:50;;;;;;;117.13;74.88;;;;;;;12.14;66.58;71922.22;5009581;28;20382;-84
2021/04/07 00:25:18;;;;;;;96.75;67.32;;;;;;;10.78;66.13;71763.28;5000980;28;20390;-83
2021/04/07 00:27:53;;;;;;;90.75;62.53;;;;;;;11.99;65.42;71902.16;5021514;28;20053;-84
2021/04/07 00:30:27;;;;;;;87.70;61.63;;;;;;;11.72;64.95;71873.31;5007856;28;20092;-84
2021/04/07 00:32:54;;;;;;;87.45;60.30;;;;;;;11.67;65.19;71867.34;5027384;28;20061;-83
2021/04/07 00:35:21;;;;;;;85.78;58.20;;;;;;;11.70;65.85;71868.16;5019481;28;20022;-83
2021/04/07 00:37:49;;;;;;;89.50;57.22;;;;;;;12.26;66.71;71935.94;5013818;28;20037;-85
2021/04/07 00:40:16;;;;;;;80.97;53.60;;;;;;;11.06;64.74;71795.44;4993325;28;20392;-84
2021/04/07 00:42:45;;;;;;;75.80;50.55;;;;;;;11.82;64.68;71885.22;5010908;28;20030;-84
2021/04/07 00:45:13;;;;;;;71.70;49.85;;;;;;;12.10;64.45;71914.09;4988179;28;20112;-84
2021/04/07 00:47:40;;;;;;;73.05;50.72;;;;;;;11.64;63.50;71859.44;4973487;28;20030;-84
2021/04/07 00:50:08;;;;;;;76.18;50.47;;;;;;;12.14;62.58;71919.44;4975081;28;20027;-85
2021/04/07 00:52:35;;;;;;;79.32;49.08;;;;;;;11.73;62.05;71875.09;4974437;28;20030;-84
2021/04/07 00:55:04;;;;;;;72.40;48.45;;;;;;;12.90;61.46;72009.31;4993079;28;20054;-84
2021/04/07 00:57:31;;;;;;;76.90;50.67;;;;;;;11.64;60.97;71861.59;4975498;28;20030;-84
2021/04/07 00:59:59;;;;;;;77.45;49.65;;;;;;;11.48;62.87;71845.88;4974388;28;20034;-85
2021/04/07 01:02:26;;;;;;;83.32;53.92;;;;;;;11.83;63.83;71883.66;4974642;28;20030;-84
2021/04/07 01:04:54;;;;;;;75.30;51.80;;;;;;;12.10;64.13;71914.09;4991319;28;20399;-85
2021/04/07 01:07:21;;;;;;;84.55;55.70;;;;;;;11.45;63.87;71839.53;4974148;28;20033;-84
2021/04/07 01:09:47;;;;;;;86.30;51.60;;;;;;;12.25;63.46;71934.16;4991882;28;20031;-83
2021/04/07 01:12:14;;;;;;;75.63;52.47;;;;;;;11.75;63.03;71871.38;4982269;28;20039;-84
2021/04/07 01:14:41;;;;;;;72.80;52.25;;;;;;;12.07;63.21;71908.38;4999807;28;20034;-83
2021/04/07 01:17:09;;;;;;;72.18;52.72;;;;;;;12.07;62.88;71913.88;4993155;28;20489;-84
2021/04/07 01:19:37;;;;;;;84.18;54.10;;;;;;;12.93;62.77;72012.91;5010239;28;20171;-84
2021/04/07 01:22:04;;;;;;;85.93;53.50;;;;;;;13.06;62.80;72022.28;4996192;28;20034;-84
2021/04/07 01:24:32;;;;;;;85.93;54.85;;;;;;;12.76;63.36;71989.84;4996364;28;20395;-84
2021/04/07 01:27:00;;;;;;;85.43;53.88;;;;;;;12.83;61.94;72000.94;5014566;28;20030;-84
2021/04/07 01:29:27;;;;;;;90.70;53.50;;;;;;;12.13;60.75;71920.44;5012516;28;20505;-85
2021/04/07 01:31:57;;;;;;;77.00;51.50;;;;;;;13.13;61.40;72033.41;4995978;28;20022;-85
2021/04/07 01:34:29;;;;;;;85.15;53.10;;;;;;;12.16;60.10;71924.00;4996097;28;20034;-84
2021/04/07 01:36:57;;;;;;;79.13;49.75;;;;;;;12.88;59.48;72006.94;5013634;28;20030;-85
2021/04/07 01:39:27;;;;;;;78.57;50.80;;;;;;;12.38;58.99;71949.66;4995917;28;20034;-84
2021/04/07 01:41:54;;;;;;;82.30;51.10;;;;;;;12.77;58.77;71991.06;5013617;28;20026;-85
2021/04/07 01:44:24;;;;;;;81.60;51.75;;;;;;;13.26;59.34;72051.09;4994955;28;20037;-85
2021/04/07 01:46:52;;;;;;;78.45;49.75;;;;;;;13.16;59.06;72039.16;5012601;28;20080;-86
2021/04/07 01:49:20;;;;;;;81.40;51.53;;;;;;;13.31;58.00;72056.47;5012013;28;20042;-85
2021/04/07 01:51:47;;;;;;;73.95;50.47;;;;;;;12.87;57.20;72002.97;4996001;28;20032;-85
2021/04/07 01:54:15;;;;;;;77.30;50.78;;;;;;;13.62;57.08;72088.94;5003851;28;20137;-85
2021/04/07 01:57:00;;;;;;;76.47;49.80;;;;;;;12.69;56.52;71982.09;4976677;28;20030;-83
2021/04/07 01:59:31;;;;;;;80.35;49.40;;;;;;;13.57;55.24;72080.22;4994324;28;20040;-83
2021/04/07 02:01:59;;;;;;;85.75;49.95;;;;;;;13.59;54.30;72088.13;5013430;28;20128;-84
2021/04/07 02:04:28;;;;;;;73.47;50.22;;;;;;;12.99;55.73;72014.53;4996822;28;20025;-84
2021/04/07 02:06:56;;;;;;;88.40;52.08;;;;;;;12.82;57.28;72000.38;5013218;28;20037;-84
2021/04/07 02:09:24;;;;;;;80.43;51.83;;;;;;;12.71;59.32;71985.06;4995068;28;20505;-86
2021/04/07 02:11:54;;;;;;;87.72;54.58;;;;;;;11.88;60.12;71892.38;4995394;28;20025;-84
2021/04/07 02:14:23;;;;;;;78.25;53.42;;;;;;;12.56;61.83;71964.41;5013020;28;20036;-85
2021/04/07 02:16:58;;;;;;;86.32;56.08;;;;;;;13.11;62.50;72033.19;5013410;28;20029;-84
2021/04/07 02:19:26;;;;;;;85.63;54.05;;;;;;;13.45;61.93;72069.84;5013019;28;20038;-85
2021/04/07 02:22:13;;;;;;;84.57;53.38;;;;;;;13.28;61.64;72050.72;4994929;28;20030;-84
2021/04/07 02:24:48;;;;;;;86.28;56.28;;;;;;;13.30;62.29;72051.91;4995138;28;20563;-84
2021/04/07 02:27:22;;;;;;;84.13;54.85;;;;;;;13.32;62.07;72054.31;5011433;28;20041;-84
2021/04/07 02:29:51;;;;;;;79.72;57.10;;;;;;;12.46;62.79;71953.09;5011009;28;20116;-85
2021/04/07 02:32:18;;;;;;;93.38;55.47;;;;;;;12.67;61.44;71982.47;4980028;28;20022;-84
2021/04/07 02:34:45;;;;;;;87.30;50.30;;;;;;;12.63;58.82;71974.94;4991754;28;20898;-85
2021/04/07 02:37:16;;;;;;;88.35;54.20;;;;;;;13.03;59.76;72023.63;4975509;28;20392;-84
2021/04/07 02:39:44;;;;;;;89.35;54.55;;;;;;;12.68;59.84;71984.25;4975522;28;20026;-84
2021/04/07 02:42:12;;;;;;;84.68;56.85;;;;;;;12.93;61.58;72012.91;4975396;28;20058;-84
2021/04/07 02:44:41;;;;;;;93.50;57.13;;;;;;;12.30;63.96;71937.38;4993304;28;20026;-84
2021/04/07 02:47:08;;;;;;;87.70;57.83;;;;;;;12.67;63.53;71979.72;4992034;28;20027;-84
2021/04/07 02:49:35;;;;;;;89.18;59.40;;;;;;;12.61;65.42;71973.16;4975084;28;20030;-85
2021/04/07 02:52:03;;;;;;;101.90;60.63;;;;;;;12.08;64.65;71909.56;4993380;28;20030;-85
2021/04/07 02:54:30;;;;;;;99.82;63.88;;;;;;;12.76;66.35;71992.63;4995157;28;20072;-85
2021/04/07 02:56:57;;;;;;;88.60;57.83;;;;;;;12.78;66.90;71992.25;5012148;28;20037;-85
2021/04/07 02:59:24;;;;;;;85.00;58.85;;;;;;;12.45;65.73;71955.25;4995102;28;20503;-84
2021/04/07 03:01:51;;;;;;;85.78;58.90;;;;;;;12.47;65.42;71956.44;4996354;28;20029;-85
2021/04/07 03:04:18;;;;;;;90.00;58.15;;;;;;;12.14;65.79;71922.22;5012939;28;20026;-86
2021/04/07 03:06:45;;;;;;;88.53;57.33;;;;;;;12.81;66.38;71993.06;4994512;28;20037;-84
2021/04/07 03:09:12;;;;;;;86.50;55.63;;;;;;;13.03;64.74;72020.88;4994640;28;20034;-85
2021/04/07 03:11:39;;;;;;;84.15;54.33;;;;;;;12.10;65.32;71917.44;4994222;28;20034;-85
2021/04/07 03:14:06;;;;;;;81.97;56.25;;;;;;;12.55;65.00;71966.00;4994116;28;20121;-84
2021/04/07 03:16:34;;;;;;;80.45;53.35;;;;;;;12.84;66.15;71999.41;4994626;28;20033;-84
2021/04/07 03:19:01;;;;;;;86.63;53.72;;;;;;;12.85;64.97;72000.59;4993764;28;20038;-82
2021/04/07 03:21:29;;;;;;;88.25;54.35;;;;;;;12.23;65.14;71929.00;5011720;28;20033;-84
2021/04/07 03:23:55;;;;;;;77.25;49.85;;;;;;;12.29;64.36;71936.16;5010411;28;20468;-84
2021/04/07 03:26:22;;;;;;;74.32;50.22;;;;;;;12.26;64.03;71935.34;4994287;28;20041;-84
2021/04/07 03:28:49;;;;;;;80.75;50.70;;;;;;;12.11;64.22;71915.28;5013877;28;20087;-85
2021/04/07 03:31:16;;;;;;;76.20;47.47;;;;;;;12.36;61.98;71941.75;5020959;28;20029;-84
2021/04/07 03:33:43;;;;;;;71.70;46.90;;;;;;;11.93;62.09;71895.00;5020427;28;20033;-84
2021/04/07 03:36:10;;;;;;;75.43;48.20;;;;;;;11.45;62.35;71842.28;4996467;28;20034;-84
2021/04/07 03:38:37;;;;;;;74.25;45.10;;;;;;;11.19;63.41;71813.09;4995084;28;20084;-85
2021/04/07 03:41:04;;;;;;;77.05;45.58;;;;;;;12.29;61.85;71938.91;4994200;28;20386;-84
2021/04/07 03:43:31;;;;;;;74.45;44.40;;;;;;;11.77;63.64;71879.28;5011058;28;20033;-85
2021/04/07 03:45:59;;;;;;;72.20;43.20;;;;;;;12.38;61.80;71946.91;4993878;28;20034;-84
2021/04/07 03:48:30;;;;;;;65.47;41.17;;;;;;;12.67;62.16;71983.06;5011276;28;20040;-84
2021/04/07 03:50:58;;;;;;;62.75;38.67;;;;;;;11.83;60.99;71883.66;5011668;28;20048;-85
2021/04/07 03:53:25;;;;;;;58.17;36.95;;;;;;;12.40;59.76;71951.44;4993706;28;20034;-84
2021/04/07 03:55:54;;;;;;;54.53;37.22;;;;;;;12.27;60.72;71933.78;4993506;28;20022;-85
2021/04/07 03:58:21;;;;;;;61.65;38.85;;;;;;;11.66;60.32;71866.75;4993455;28;20030;-85
2021/04/07 04:00:49;;;;;;;61.67;37.85;;;;;;;11.61;60.55;71861.38;4993396;28;20030;-85
2021/04/07 04:03:15;;;;;;;67.00;37.33;;;;;;;11.69;61.04;71869.72;4993162;28;20506;-84
2021/04/07 04:05:43;;;;;;;63.70;38.03;;;;;;;12.10;61.51;71917.44;5010982;28;20116;-85
2021/04/07 04:08:10;;;;;;;61.17;38.47;;;;;;;12.13;60.99;71914.94;4993425;28;20418;-85
2021/04/07 04:10:37;;;;;;;62.63;36.65;;;;;;;12.01;61.39;71904.53;5011155;28;20032;-85
2021/04/07 04:13:05;;;;;;;59.20;40.53;;;;;;;12.05;60.67;71911.47;5011218;28;20025;-85
2021/04/07 04:15:33;;;;;;;62.03;39.42;;;;;;;11.94;60.72;71898.34;5009197;28;20071;-85
2021/04/07 04:18:01;;;;;;;67.88;39.75;;;;;;;12.37;61.37;71947.88;5011522;28;20026;-85
2021/04/07 04:20:28;;;;;;;62.13;40.70;;;;;;;12.42;61.65;71953.84;5009646;28;20479;-84
2021/04/07 04:22:55;;;;;;;56.10;40.63;;;;;;;12.34;60.79;71944.88;5009826;28;20044;-85
2021/04/07 04:25:23;;;;;;;63.78;38.45;;;;;;;12.37;60.88;71948.44;5011457;28;20029;-84
2021/04/07 04:27:50;;;;;;;56.70;41.50;;;;;;;12.43;60.97;71955.03;5014907;28;20026;-85
2021/04/07 04:30:20;;;;;;;67.03;39.75;;;;;;;12.69;60.82;71982.09;5015203;28;20030;-84
2021/04/07 04:32:47;;;;;;;62.42;39.53;;;;;;;12.61;59.66;71975.31;5011291;28;20026;-85
2021/04/07 04:35:14;;;;;;;62.88;37.78;;;;;;;12.95;58.43;72012.53;5009754;28;20044;-85
2021/04/07 04:37:42;;;;;;;66.35;39.00;;;;;;;12.87;58.25;72005.72;5009567;28;20038;-85
2021/04/07 04:40:11;;;;;;;60.65;38.97;;;;;;;12.43;55.33;71955.63;5009638;28;20108;-85
2021/04/07 04:42:38;;;;;;;66.07;38.33;;;;;;;13.08;56.42;72027.44;5009537;28;20183;-85
2021/04/07 04:45:07;;;;;;;59.78;36.15;;;;;;;12.53;53.46;71966.38;5003142;28;20041;-84
2021/04/07 04:47:34;;;;;;;62.38;35.72;;;;;;;12.48;52.24;71957.63;4990460;28;20035;-82
2021/04/07 04:50:03;;;;;;;58.33;35.55;;;;;;;13.62;51.53;72092.28;4991080;28;20026;-83
2021/04/07 04:52:29;;;;;;;67.13;37.33;;;;;;;13.12;50.54;72031.63;4974015;28;20479;-85
2021/04/07 04:54:56;;;;;;;55.83;33.30;;;;;;;13.41;50.74;72068.41;4994778;28;20038;-85
2021/04/07 04:57:23;;;;;;;53.60;30.00;;;;;;;12.84;51.74;72002.75;4993840;28;20451;-85
2021/04/07 04:59:50;;;;;;;47.53;30.65;;;;;;;12.42;51.36;71951.66;4994502;28;20121;-84
2021/04/07 05:02:17;;;;;;;58.30;33.15;;;;;;;12.61;51.04;71975.91;4976897;28;20049;-84
2021/04/07 05:04:44;;;;;;;52.28;32.22;;;;;;;12.50;51.15;71957.25;4993477;28;20037;-84
2021/04/07 05:07:11;;;;;;;57.35;33.17;;;;;;;12.89;50.49;72007.53;4994291;28;20093;-86
2021/04/07 05:09:38;;;;;;;52.55;32.97;;;;;;;12.63;51.48;71974.94;4994950;28;20550;-84
2021/04/07 05:12:05;;;;;;;52.22;31.27;;;;;;;12.43;49.90;71952.28;4993135;28;20073;-83
2021/04/07 05:14:32;;;;;;;49.28;32.53;;;;;;;12.02;50.20;71905.13;4995167;28;20034;-83
2021/04/07 05:16:59;;;;;;;69.28;32.00;;;;;;;13.18;48.97;72038.78;4999272;28;20026;-85
2021/04/07 05:19:28;;;;;;;57.83;30.23;;;;;;;13.66;48.71;72094.31;5014836;28;20112;-84
2021/04/07 05:21:55;;;;;;;61.67;32.25;;;;;;;13.78;46.96;72108.03;5014222;28;20025;-85
2021/04/07 05:24:22;;;;;;;56.10;34.33;;;;;;;13.49;46.73;72076.78;4997462;28;20042;-85
2021/04/07 05:26:50;;;;;;;59.88;30.50;;;;;;;12.92;46.78;72008.94;5002400;28;20067;-85
2021/04/07 05:29:17;;;;;;;57.45;31.02;;;;;;;12.89;45.89;72007.53;4993298;28;20030;-84
2021/04/07 05:31:45;;;;;;;51.90;30.85;;;;;;;13.48;46.04;72073.41;4976681;28;20104;-86
2021/04/07 05:34:12;;;;;;;51.03;29.85;;;;;;;12.83;46.76;71998.19;4977130;28;20049;-87
2021/04/07 05:36:39;;;;;;;54.47;31.73;;;;;;;13.34;46.33;72053.91;4976526;28;20027;-84
2021/04/07 05:39:06;;;;;;;62.35;31.23;;;;;;;12.73;46.71;71990.22;4992865;28;20026;-86
2021/04/07 05:41:33;;;;;;;57.35;30.70;;;;;;;13.32;45.03;72057.66;4992483;28;20026;-84
2021/04/07 05:43:59;;;;;;;54.35;30.90;;;;;;;13.25;45.09;72046.56;4976318;28;20054;-84
2021/04/07 05:46:26;;;;;;;50.67;30.25;;;;;;;13.80;44.26;72113.19;4994449;28;20116;-86
2021/04/07 05:48:53;;;;;;;49.63;30.00;;;;;;;13.31;43.10;72050.34;4976301;28;20042;-85
2021/04/07 05:51:20;;;;;;;48.63;26.75;;;;;;;13.92;42.39;72126.34;4993675;28;20034;-85
2021/04/07 05:53:47;;;;;;;51.72;28.83;;;;;;;13.13;40.51;72035.56;4972728;28;20043;-85
2021/04/07 05:56:14;;;;;;;55.30;26.35;;;;;;;14.12;41.00;72143.50;4974599;28;20370;-84
2021/04/07 05:58:40;;;;;;;44.28;29.23;;;;;;;13.67;41.50;72097.69;4974876;28;20035;-85
2021/04/07 06:01:07;;;;;;;48.17;28.52;;;;;;;12.67;43.34;71980.28;4989808;28;20034;-86
2021/04/07 06:03:34;;;;;;;45.50;28.60;;;;;;;13.08;43.32;72026.84;4974034;28;20525;-85
2021/04/07 06:06:01;;;;;;;50.53;30.45;;;;;;;13.84;45.28;72117.38;4972246;28;20177;-85
2021/04/07 06:08:28;;;;;;;59.08;31.65;;;;;;;13.15;46.74;72032.44;4991264;28;20030;-85
2021/04/07 06:10:55;;;;;;;51.05;28.10;;;;;;;13.36;47.50;72059.06;4992412;28;20038;-85
2021/04/07 06:13:21;;;;;;;49.05;27.75;;;;;;;12.61;45.12;71975.31;4992058;28;20034;-85
2021/04/07 06:15:48;;;;;;;47.97;28.08;;;;;;;13.27;46.33;72048.94;4993541;28;20117;-85
2021/04/07 06:18:16;;;;;;;39.47;25.55;;;;;;;13.75;46.36;72104.47;4992593;28;20041;-85
2021/04/07 06:20:46;;;;;;;46.83;27.33;;;;;;;13.20;46.57;72038.41;4993374;28;20033;-84
2021/04/07 06:23:14;;;;;;;39.87;26.37;;;;;;;13.63;46.55;72090.13;4992257;28;20034;-84
2021/04/07 06:25:45;;;;;;;49.72;26.05;;;;;;;13.66;45.30;72090.94;4992700;28;20279;-84
2021/04/07 06:28:13;;;;;;;45.63;25.38;;;;;;;14.06;44.60;72143.06;4992113;28;20499;-85
2021/04/07 06:33:22;;;;;;;42.65;24.23;;;;;;;14.10;45.72;72144.47;4993700;28;20033;-84
2021/04/07 06:35:51;;;;;;;38.92;24.13;;;;;;;14.17;46.51;72152.22;4991926;28;20037;-84
2021/04/07 06:38:18;;;;;;;52.65;25.15;;;;;;;14.53;45.41;72196.81;4992202;28;20141;-84
2021/04/07 06:40:49;;;;;;;48.80;24.58;;;;;;;14.40;47.70;72176.34;4992267;28;20532;-84
2021/04/07 06:43:18;;;;;;;36.80;24.35;;;;;;;14.60;48.40;72199.66;4992235;28;20068;-84
2021/04/07 06:45:47;;;;;;;41.97;23.20;;;;;;;13.68;49.21;72096.69;4993591;28;20030;-84
2021/04/07 06:48:15;;;;;;;45.13;24.52;;;;;;;14.40;48.02;72178.53;4992006;28;20407;-85
2021/04/07 06:50:45;;;;;;;38.53;24.98;;;;;;;14.24;50.09;72160.59;4993263;28;20435;-85
2021/04/07 06:53:12;;;;;;;43.15;24.30;;;;;;;14.26;49.73;72162.97;4992507;28;20022;-84
2021/04/07 06:55:40;;;;;;;40.20;25.40;;;;;;;13.81;51.21;72111.03;5012775;28;20036;-84
2021/04/07 06:58:09;;;;;;;41.22;22.77;;;;;;;14.23;51.33;72159.41;5012513;28;20077;-84
2021/04/07 07:00:37;;;;;;;39.65;24.77;;;;;;;14.34;52.09;72169.78;5011034;28;20033;-84
2021/04/07 07:03:16;;;;;;;40.50;24.50;;;;;;;13.94;51.96;72128.72;5012084;28;21015;-85
2021/04/07 07:05:48;;;;;;;38.22;25.58;;;;;;;13.20;52.97;72041.16;5012003;28;20032;-84
2021/04/07 07:08:17;;;;;;;34.38;23.77;;;;;;;13.56;53.11;72079.63;5011796;28;20488;-84
2021/04/07 07:10:49;;;;;;;42.58;23.58;;;;;;;13.05;51.96;72026.63;4994144;28;20033;-84
2021/04/07 07:13:23;;;;;;;38.10;23.85;;;;;;;13.44;52.70;72071.41;4994191;28;20048;-83
2021/04/07 07:15:51;;;;;;;35.67;23.35;;;;;;;13.05;51.50;72023.25;4994310;28;20029;-86
2021/04/07 07:18:28;;;;;;;39.67;24.65;;;;;;;12.81;52.23;71998.56;5011565;28;20076;-85
2021/04/07 07:20:57;;;;;;;40.83;24.85;;;;;;;12.71;52.35;71984.47;5011775;28;20034;-85
2021/04/07 07:23:31;;;;;;;33.92;21.75;;;;;;;13.41;51.08;72065.03;4994040;28;20030;-85
2021/04/07 07:26:10;;;;;;;35.65;25.25;;;;;;;13.29;50.64;72054.06;5011712;28;20507;-84
2021/04/07 07:28:44;;;;;;;40.75;22.85;;;;;;;12.41;49.35;71947.72;4993796;28;20097;-84
2021/04/07 07:31:25;;;;;;;39.35;25.38;;;;;;;12.55;49.45;71963.81;5011798;28;20117;-85
2021/04/07 07:33:53;;;;;;;36.45;24.35;;;;;;;12.51;50.68;71963.97;4993997;28;20454;-85
2021/04/07 07:36:21;;;;;;;40.40;21.98;;;;;;;13.04;51.90;72019.31;4994129;28;20029;-84
2021/04/07 07:38:53;;;;;;;38.90;22.27;;;;;;;12.96;52.36;72010.94;5011441;28;20105;-83
2021/04/07 07:41:36;;;;;;;46.53;25.08;;;;;;;12.89;50.74;72002.59;4993729;28;20048;-84
2021/04/07 07:44:04;;;;;;;37.60;23.17;;;;;;;12.58;51.68;71972.31;4998412;28;20201;-84
2021/04/07 07:46:32;;;;;;;37.13;22.25;;;;;;;11.54;51.43;71853.03;5020291;28;20089;-84
2021/04/07 07:49:01;;;;;;;46.10;24.73;;;;;;;11.97;50.38;71901.91;5002738;28;20574;-84
2021/04/07 07:51:29;;;;;;;36.08;23.10;;;;;;;12.47;50.22;71959.78;5013750;28;20505;-84
2021/04/07 07:53:56;;;;;;;38.55;21.52;;;;;;;12.81;49.71;71998.56;5011532;28;20065;-85
2021/04/07 07:56:36;;;;;;;39.95;22.02;;;;;;;12.89;47.54;72002.59;4993815;28;20036;-85
2021/04/07 07:59:03;;;;;;;43.28;22.98;;;;;;;11.95;49.09;71896.78;4993588;28;20034;-84
2021/04/07 08:01:48;;;;;;;39.22;20.55;;;;;;;11.82;45.19;71885.22;4993370;28;20030;-84
2021/04/07 08:04:15;;;;;;;36.72;20.42;;;;;;;12.20;46.79;71928.19;5010970;28;20040;-84
2021/04/07 08:06:41;;;;;;;32.35;19.13;;;;;;;12.33;45.38;71943.69;5011310;28;20037;-84
2021/04/07 08:09:10;;;;;;;36.88;21.20;;;;;;;12.28;43.50;71934.97;5011122;28;20049;-85
2021/04/07 08:11:37;;;;;;;35.30;20.13;;;;;;;12.34;43.17;71944.88;5011579;28;20104;-85
2021/04/07 08:14:04;;;;;;;33.22;19.88;;;;;;;11.86;42.81;71889.41;4992994;28;20045;-84
2021/04/07 08:16:34;;;;;;;32.03;17.75;;;;;;;12.57;42.71;71968.97;5004564;28;20037;-84
2021/04/07 08:19:04;;;;;;;36.37;19.23;;;;;;;12.67;43.01;71983.06;4999219;28;20025;-86
2021/04/07 08:21:31;;;;;;;38.25;18.95;;;;;;;12.55;42.96;71968.75;4994321;28;20301;-84
2021/04/07 08:24:05;;;;;;;36.28;19.30;;;;;;;13.30;43.97;72052.50;4995582;28;20038;-85
2021/04/07 08:26:36;;;;;;;32.05;18.35;;;;;;;12.43;44.91;71955.03;4998025;28;20030;-85
2021/04/07 08:29:05;;;;;;;36.08;21.55;;;;;;;13.21;45.40;72039.00;4997036;28;20096;-85
2021/04/07 08:31:33;;;;;;;30.85;20.48;;;;;;;12.59;44.95;71973.50;5014643;28;20029;-86
2021/04/07 08:34:04;;;;;;;27.90;18.75;;;;;;;13.25;44.91;72047.13;5016147;28;20085;-86
2021/04/07 08:36:32;;;;;;;28.58;17.42;;;;;;;12.77;43.95;71991.06;4998925;28;20040;-86
2021/04/07 08:39:25;;;;;;;29.23;15.52;;;;;;;13.28;43.18;72052.88;4998883;28;20167;-83
2021/04/07 08:41:52;;;;;;;25.20;15.45;;;;;;;12.54;41.84;71968.13;4995410;28;20041;-85
2021/04/07 08:44:20;;;;;;;33.20;16.20;;;;;;;12.27;43.56;71936.53;5015629;28;20376;-84
2021/04/07 08:46:53;;;;;;;30.83;16.40;;;;;;;11.56;43.33;71852.66;4994757;28;20026;-83
2021/04/07 08:49:35;;;;;;;22.77;15.75;;;;;;;12.75;43.49;71985.88;5015053;28;20101;-84
2021/04/07 08:52:23;;;;;;;32.45;15.70;;;;;;;12.59;43.11;71968.59;5010159;28;20037;-87
2021/04/07 08:54:58;;;;;;;20.50;13.80;;;;;;;12.79;42.27;71996.78;5000120;28;20054;-87
2021/04/07 08:57:33;;;;;;;22.25;14.48;;;;;;;12.35;41.74;71943.31;5000153;28;20041;-85
2021/04/07 09:00:03;;;;;;;22.02;13.70;;;;;;;12.94;40.35;72011.31;4984758;28;20049;-86
2021/04/07 09:02:30;;;;;;;27.30;15.73;;;;;;;12.66;40.47;71976.34;4995182;28;20023;-87
2021/04/07 09:05:08;;;;;;;24.48;13.10;;;;;;;12.87;39.91;72002.97;5010093;28;20094;-88
2021/04/07 09:07:46;;;;;;;23.42;12.68;;;;;;;12.18;39.80;71927.00;4982014;28;20459;-87
2021/04/07 09:10:22;;;;;;;20.50;13.63;;;;;;;13.00;40.63;72020.66;4992768;28;20037;-87
2021/04/07 09:12:52;;;;;;;27.35;13.13;;;;;;;13.13;39.36;72035.56;4964164;28;20034;-90
2021/04/07 09:15:25;;;;;;;;;;;;;;;13.10;38.53;72032.59;5002473;28;20025;-85
2021/04/07 09:17:57;;;;;;;24.02;12.93;;;;;;;12.23;37.67;71929.59;5016330;28;19936;-85
2021/04/07 09:20:39;;;;;;;22.50;13.32;;;;;;;12.85;38.81;72003.34;5003696;28;20033;-86
2021/04/07 09:23:20;;;;;;;20.08;13.55;;;;;;;12.23;39.21;71926.25;4997193;28;20029;-86
2021/04/07 09:25:49;;;;;;;29.38;13.65;;;;;;;12.11;39.40;71918.63;4994564;28;20042;-80
2021/04/07 09:28:17;;;;;;;20.42;13.23;;;;;;;11.21;39.68;71812.13;5020761;28;20433;-85
2021/04/07 09:30:48;;;;;;;25.95;14.02;;;;;;;12.24;38.86;71933.53;5003615;28;20096;-84
2021/04/07 09:33:17;;;;;;;21.10;13.65;;;;;;;11.88;38.35;71891.78;4984773;28;20492;-86
2021/04/07 09:36:00;;;;;;;24.50;14.73;;;;;;;12.70;39.32;71986.66;4992155;28;20029;-87
2021/04/07 09:38:30;;;;;;;25.85;14.98;;;;;;;12.66;39.95;71978.53;5013426;28;20089;-85
2021/04/07 09:41:13;;;;;;;24.98;12.00;;;;;;;11.94;40.32;71895.59;4994343;28;20025;-82
2021/04/07 09:43:41;;;;;;;24.30;14.30;;;;;;;12.22;40.87;71930.56;5003715;28;20048;-83
2021/04/07 09:46:09;;;;;;;23.23;14.15;;;;;;;11.72;40.66;71873.31;5019780;28;20433;-84
2021/04/07 09:48:53;;;;;;;26.92;14.38;;;;;;;12.52;41.87;71962.41;5004219;28;20025;-84
2021/04/07 09:51:29;;;;;;;20.23;13.45;;;;;;;11.70;41.46;71868.16;5006801;28;20041;-87
2021/04/07 09:54:08;;;;;;;26.98;14.57;;;;;;;11.95;41.37;71900.13;4999604;28;20385;-83
2021/04/07 09:56:53;;;;;;;23.88;12.80;;;;;;;12.31;41.97;71938.56;4993809;28;20443;-84
2021/04/07 09:59:34;;;;;;;31.00;14.45;;;;;;;11.74;42.28;71872.94;4991929;28;20476;-83
2021/04/07 10:02:02;;;;;;;24.50;15.10;;;;;;;11.60;42.16;71859.59;4992568;28;20129;-83
2021/04/07 10:04:30;;;;;;;23.60;13.82;;;;;;;11.85;42.07;71888.81;4987564;28;20077;-86
2021/04/07 10:07:13;;;;;;;29.70;15.68;;;;;;;11.87;43.82;71887.84;4984569;28;20063;-95
2021/04/07 10:09:48;;;;;;;27.85;16.08;;;;;;;11.93;45.44;71894.41;4992838;28;20034;-86
2021/04/07 10:12:21;;;;;;;26.58;14.57;;;;;;;11.56;46.67;71855.41;4997193;28;20045;-94
2021/04/07 10:14:50;;;;;;;27.40;16.35;;;;;;;11.63;47.76;71863.16;4988571;28;20042;-89
2021/04/07 10:17:19;;;;;;;25.17;15.80;;;;;;;11.01;48.68;71789.50;4985801;28;20033;-91
2021/04/07 10:19:50;;;;;;;25.90;16.17;;;;;;;10.62;49.71;71744.22;5009232;28;20018;-96
2021/04/07 10:22:22;;;;;;;28.52;16.42;;;;;;;8.92;50.29;71546.19;5015298;28;20015;-95
2021/04/07 10:24:54;;;;;;;30.95;17.33;;;;;;;9.99;50.49;71667.22;5013322;28;20125;-94
2021/04/07 10:27:23;;;;;;;32.33;16.58;;;;;;;10.56;50.96;71737.06;4988225;28;20133;-94
2021/04/07 10:30:01;;;;;;;22.20;14.80;;;;;;;11.30;49.03;71820.09;4997839;28;20034;-88
2021/04/07 10:32:28;;;;;;;24.88;16.60;;;;;;;11.04;50.42;71795.81;4997766;28;20026;-92
2021/04/07 10:35:03;;;;;;;25.45;16.17;;;;;;;11.12;50.64;71804.16;5014355;28;20034;-90
2021/04/07 10:37:30;;;;;;;32.95;16.10;;;;;;;11.24;50.56;71815.72;5011451;28;20041;-89
2021/04/07 10:39:57;;;;;;;26.17;16.15;;;;;;;11.54;51.45;71849.69;5008687;28;20010;-93
2021/04/07 10:42:31;;;;;;;28.13;16.10;;;;;;;10.06;51.90;71679.88;5010284;28;20026;-89
2021/04/07 10:45:03;;;;;;;36.60;17.38;;;;;;;11.41;52.34;71834.78;4999916;28;20068;-90
2021/04/07 10:47:37;;;;;;;22.25;16.05;;;;;;;11.49;53.04;71847.06;4998381;28;20032;-93
2021/04/07 10:50:08;;;;;;;27.17;16.35;;;;;;;11.42;51.88;71835.97;5007946;28;20037;-93
2021/04/07 10:52:36;;;;;;;25.60;16.55;;;;;;;10.62;52.64;71747.56;4985677;28;20030;-85
2021/04/07 10:55:13;;;;;;;25.00;17.42;;;;;;;10.45;55.65;71727.31;5008603;28;20050;-85
2021/04/07 10:57:47;;;;;;;34.97;19.08;;;;;;;11.14;54.77;71807.16;4993717;28;20066;-86
2021/04/07 11:00:35;;;;;;;31.45;18.77;;;;;;;9.85;55.07;71658.81;4974599;28;20113;-86
2021/04/07 11:03:03;;;;;;;29.13;18.13;;;;;;;10.98;56.32;71788.66;4991645;28;20026;-87
2021/04/07 11:05:45;;;;;;;31.67;18.75;;;;;;;10.57;52.29;71741.59;5002404;28;20065;-87
2021/04/07 11:08:14;;;;;;;23.40;15.98;;;;;;;10.93;55.35;71782.69;4998661;28;20038;-87
2021/04/07 11:10:48;;;;;;;31.17;19.30;;;;;;;10.67;55.24;71750.16;5005882;28;20053;-88
2021/04/07 11:13:19;;;;;;;25.42;18.75;;;;;;;10.84;48.91;71769.22;4999035;28;20049;-87
2021/04/07 11:15:46;;;;;;;28.80;19.83;;;;;;;11.61;52.48;71861.38;4987516;28;20479;-87
2021/04/07 11:18:14;;;;;;;28.70;19.35;;;;;;;11.17;51.47;71810.13;5001818;28;20026;-86
2021/04/07 11:20:42;;;;;;;32.03;23.02;;;;;;;11.30;53.67;71825.03;4994517;28;20476;-78
2021/04/07 11:23:10;;;;;;;28.67;18.95;;;;;;;10.80;53.54;71765.66;4993666;28;20041;-87
2021/04/07 11:25:37;;;;;;;35.45;22.15;;;;;;;10.84;54.90;71772.59;4984034;28;20037;-88
2021/04/07 11:28:04;;;;;;;30.58;22.52;;;;;;;10.64;54.18;71749.34;4992306;28;20030;-87
2021/04/07 11:30:32;;;;;;;36.38;21.40;;;;;;;10.11;54.32;71685.84;4992535;28;20049;-87